sensor_id;sensor_type;location;lat;lon;timestamp;P1;P2;P0
51052;PMS5003;37093;37.716;-122.060;2022-12-07T00:01:08;3;2;
51052;PMS5003;37093;37.716;-122.060;2022-12-07T00:03:38;2;2;
51052;PMS5003;37093;37.716;-122.060;2022-12-07T00:06:09;3;2;
51052;PMS5003;37093;37.716;-122.060;2022-12-07T00:08:39;2;2;
51052;PMS5003;37093;37.716;-122.060;2022-12-07T00:11:09;2;2;
51052;PMS5003;37093;37.716;-122.060;2022-12-07T00:13:39;2;2;
51052;PMS5003;37093;37.716;-122.060;2022-12-07T00:16:09;3;3;
51052;PMS5003;37093;37.716;-122.060;2022-12-07T00:18:39;3;3;
51052;PMS5003;37093;37.716;-122.060;2022-12-07T00:21:09;4;3;
51052;PMS5003;37093;37.716;-122.060;2022-12-07T00:23:40;4;4;
51052;PMS5003;37093;37.716;-122.060;2022-12-07T00:26:10;7;6;
51052;PMS5003;37093;37.716;-122.060;2022-12-07T00:28:40;8;5;
51052;PMS5003;37093;37.716;-122.060;2022-12-07T00:31:12;5;4;
51052;PMS5003;37093;37.716;-122.060;2022-12-07T00:33:42;2;2;
51052;PMS5003;37093;37.716;-122.060;2022-12-07T00:36:14;7;4;
51052;PMS5003;37093;37.716;-122.060;2022-12-07T00:38:44;5;4;
51052;PMS5003;37093;37.716;-122.060;2022-12-07T00:41:13;5;4;
51052;PMS5003;37093;37.716;-122.060;2022-12-07T00:43:43;3;3;
51052;PMS5003;37093;37.716;-122.060;2022-12-07T00:46:12;7;4;
51052;PMS5003;37093;37.716;-122.060;2022-12-07T00:48:41;4;2;
51052;PMS5003;37093;37.716;-122.060;2022-12-07T00:51:09;4;4;
51052;PMS5003;37093;37.716;-122.060;2022-12-07T00:53:40;8;5;
51052;PMS5003;37093;37.716;-122.060;2022-12-07T00:56:10;2;2;
51052;PMS5003;37093;37.716;-122.060;2022-12-07T00:58:40;3;3;
51052;PMS5003;37093;37.716;-122.060;2022-12-07T01:01:09;3;2;
51052;PMS5003;37093;37.716;-122.060;2022-12-07T01:03:38;4;4;
51052;PMS5003;37093;37.716;-122.060;2022-12-07T01:06:07;9;7;
51052;PMS5003;37093;37.716;-122.060;2022-12-07T01:08:35;5;3;
51052;PMS5003;37093;37.716;-122.060;2022-12-07T01:11:04;6;3;
51052;PMS5003;37093;37.716;-122.060;2022-12-07T01:13:34;2;2;
51052;PMS5003;37093;37.716;-122.060;2022-12-07T01:16:04;3;2;
51052;PMS5003;37093;37.716;-122.060;2022-12-07T01:18:34;5;3;
51052;PMS5003;37093;37.716;-122.060;2022-12-07T01:21:04;5;3;
51052;PMS5003;37093;37.716;-122.060;2022-12-07T01:23:34;2;2;
51052;PMS5003;37093;37.716;-122.060;2022-12-07T01:26:03;2;2;
51052;PMS5003;37093;37.716;-122.060;2022-12-07T01:28:34;1;1;
51052;PMS5003;37093;37.716;-122.060;2022-12-07T01:31:03;2;2;
51052;PMS5003;37093;37.716;-122.060;2022-12-07T01:33:33;2;2;
51052;PMS5003;37093;37.716;-122.060;2022-12-07T01:36:04;4;2;
51052;PMS5003;37093;37.716;-122.060;2022-12-07T01:38:34;2;2;
51052;PMS5003;37093;37.716;-122.060;2022-12-07T01:41:03;3;3;
51052;PMS5003;37093;37.716;-122.060;2022-12-07T01:43:32;3;3;
51052;PMS5003;37093;37.716;-122.060;2022-12-07T01:46:02;3;3;
51052;PMS5003;37093;37.716;-122.060;2022-12-07T01:48:31;4;2;
51052;PMS5003;37093;37.716;-122.060;2022-12-07T01:51:04;2;2;
51052;PMS5003;37093;37.716;-122.060;2022-12-07T01:53:36;2;2;
51052;PMS5003;37093;37.716;-122.060;2022-12-07T01:56:08;2;2;
51052;PMS5003;37093;37.716;-122.060;2022-12-07T01:58:42;2;2;
51052;PMS5003;37093;37.716;-122.060;2022-12-07T02:01:11;2;2;
51052;PMS5003;37093;37.716;-122.060;2022-12-07T02:03:41;2;2;
51052;PMS5003;37093;37.716;-122.060;2022-12-07T02:06:11;2;2;
51052;PMS5003;37093;37.716;-122.060;2022-12-07T02:08:43;3;2;
51052;PMS5003;37093;37.716;-122.060;2022-12-07T02:11:13;3;2;
51052;PMS5003;37093;37.716;-122.060;2022-12-07T02:13:42;2;1;
51052;PMS5003;37093;37.716;-122.060;2022-12-07T02:16:16;6;3;
51052;PMS5003;37093;37.716;-122.060;2022-12-07T02:18:58;4;3;
51052;PMS5003;37093;37.716;-122.060;2022-12-07T02:21:41;1;1;
51052;PMS5003;37093;37.716;-122.060;2022-12-07T02:24:16;2;2;
51052;PMS5003;37093;37.716;-122.060;2022-12-07T02:27:38;1;1;
51052;PMS5003;37093;37.716;-122.060;2022-12-07T02:30:12;4;3;
51052;PMS5003;37093;37.716;-122.060;2022-12-07T02:32:46;4;1;
51052;PMS5003;37093;37.716;-122.060;2022-12-07T02:35:23;5;2;
51052;PMS5003;37093;37.716;-122.060;2022-12-07T02:38:01;2;2;
51052;PMS5003;37093;37.716;-122.060;2022-12-07T02:40:38;2;2;
51052;PMS5003;37093;37.716;-122.060;2022-12-07T02:43:11;1;1;
51052;PMS5003;37093;37.716;-122.060;2022-12-07T02:45:43;2;1;
51052;PMS5003;37093;37.716;-122.060;2022-12-07T02:48:14;2;2;
51052;PMS5003;37093;37.716;-122.060;2022-12-07T02:50:45;4;3;
51052;PMS5003;37093;37.716;-122.060;2022-12-07T02:53:32;2;2;
51052;PMS5003;37093;37.716;-122.060;2022-12-07T02:56:04;3;3;
51052;PMS5003;37093;37.716;-122.060;2022-12-07T02:58:43;2;2;
51052;PMS5003;37093;37.716;-122.060;2022-12-07T03:01:28;3;3;
51052;PMS5003;37093;37.716;-122.060;2022-12-07T03:04:06;2;2;
51052;PMS5003;37093;37.716;-122.060;2022-12-07T03:06:49;5;3;
51052;PMS5003;37093;37.716;-122.060;2022-12-07T03:09:22;3;2;
51052;PMS5003;37093;37.716;-122.060;2022-12-07T03:11:58;1;1;
51052;PMS5003;37093;37.716;-122.060;2022-12-07T03:14:34;3;3;
51052;PMS5003;37093;37.716;-122.060;2022-12-07T03:17:09;5;3;
51052;PMS5003;37093;37.716;-122.060;2022-12-07T03:19:43;2;2;
51052;PMS5003;37093;37.716;-122.060;2022-12-07T03:22:14;1;1;
51052;PMS5003;37093;37.716;-122.060;2022-12-07T03:24:45;3;3;
51052;PMS5003;37093;37.716;-122.060;2022-12-07T03:27:20;4;3;
51052;PMS5003;37093;37.716;-122.060;2022-12-07T03:29:53;5;4;
51052;PMS5003;37093;37.716;-122.060;2022-12-07T03:32:25;5;3;
51052;PMS5003;37093;37.716;-122.060;2022-12-07T03:34:59;3;3;
51052;PMS5003;37093;37.716;-122.060;2022-12-07T03:37:32;3;2;
51052;PMS5003;37093;37.716;-122.060;2022-12-07T03:40:07;3;3;
51052;PMS5003;37093;37.716;-122.060;2022-12-07T03:42:41;4;3;
51052;PMS5003;37093;37.716;-122.060;2022-12-07T03:45:10;3;3;
51052;PMS5003;37093;37.716;-122.060;2022-12-07T03:47:42;5;4;
51052;PMS5003;37093;37.716;-122.060;2022-12-07T03:50:15;3;3;
51052;PMS5003;37093;37.716;-122.060;2022-12-07T03:52:53;5;3;
51052;PMS5003;37093;37.716;-122.060;2022-12-07T03:55:24;3;3;
51052;PMS5003;37093;37.716;-122.060;2022-12-07T03:57:58;3;3;
51052;PMS5003;37093;37.716;-122.060;2022-12-07T04:00:31;4;3;
51052;PMS5003;37093;37.716;-122.060;2022-12-07T04:02:59;4;4;
51052;PMS5003;37093;37.716;-122.060;2022-12-07T04:05:28;4;4;
51052;PMS5003;37093;37.716;-122.060;2022-12-07T04:07:57;8;7;
51052;PMS5003;37093;37.716;-122.060;2022-12-07T04:10:25;11;10;
51052;PMS5003;37093;37.716;-122.060;2022-12-07T04:12:54;16;15;
51052;PMS5003;37093;37.716;-122.060;2022-12-07T04:15:22;16;14;
51052;PMS5003;37093;37.716;-122.060;2022-12-07T04:17:51;16;15;
51052;PMS5003;37093;37.716;-122.060;2022-12-07T04:20:19;27;17;
51052;PMS5003;37093;37.716;-122.060;2022-12-07T04:22:47;18;16;
51052;PMS5003;37093;37.716;-122.060;2022-12-07T04:25:16;21;16;
51052;PMS5003;37093;37.716;-122.060;2022-12-07T04:27:44;26;21;
51052;PMS5003;37093;37.716;-122.060;2022-12-07T04:30:12;19;19;
51052;PMS5003;37093;37.716;-122.060;2022-12-07T04:32:41;24;23;
51052;PMS5003;37093;37.716;-122.060;2022-12-07T04:35:10;30;28;
51052;PMS5003;37093;37.716;-122.060;2022-12-07T04:37:38;25;22;
51052;PMS5003;37093;37.716;-122.060;2022-12-07T04:40:08;20;13;
51052;PMS5003;37093;37.716;-122.060;2022-12-07T04:42:37;32;23;
51052;PMS5003;37093;37.716;-122.060;2022-12-07T04:45:06;20;15;
51052;PMS5003;37093;37.716;-122.060;2022-12-07T04:47:35;15;11;
51052;PMS5003;37093;37.716;-122.060;2022-12-07T04:50:04;7;7;
51052;PMS5003;37093;37.716;-122.060;2022-12-07T04:52:34;8;7;
51052;PMS5003;37093;37.716;-122.060;2022-12-07T04:55:02;10;9;
51052;PMS5003;37093;37.716;-122.060;2022-12-07T04:57:31;7;7;
51052;PMS5003;37093;37.716;-122.060;2022-12-07T05:00:00;10;4;
51052;PMS5003;37093;37.716;-122.060;2022-12-07T05:02:28;8;6;
51052;PMS5003;37093;37.716;-122.060;2022-12-07T05:04:57;9;9;
51052;PMS5003;37093;37.716;-122.060;2022-12-07T05:07:25;15;11;
51052;PMS5003;37093;37.716;-122.060;2022-12-07T05:09:54;13;12;
51052;PMS5003;37093;37.716;-122.060;2022-12-07T05:12:22;14;13;
51052;PMS5003;37093;37.716;-122.060;2022-12-07T05:14:51;7;6;
51052;PMS5003;37093;37.716;-122.060;2022-12-07T05:17:19;4;4;
51052;PMS5003;37093;37.716;-122.060;2022-12-07T05:19:48;2;2;
51052;PMS5003;37093;37.716;-122.060;2022-12-07T05:22:17;2;2;
51052;PMS5003;37093;37.716;-122.060;2022-12-07T05:24:45;2;2;
51052;PMS5003;37093;37.716;-122.060;2022-12-07T05:27:14;10;7;
51052;PMS5003;37093;37.716;-122.060;2022-12-07T05:29:42;10;9;
51052;PMS5003;37093;37.716;-122.060;2022-12-07T05:32:11;14;8;
51052;PMS5003;37093;37.716;-122.060;2022-12-07T05:34:39;6;6;
51052;PMS5003;37093;37.716;-122.060;2022-12-07T05:37:08;13;13;
51052;PMS5003;37093;37.716;-122.060;2022-12-07T05:39:36;18;16;
51052;PMS5003;37093;37.716;-122.060;2022-12-07T05:42:07;34;24;
51052;PMS5003;37093;37.716;-122.060;2022-12-07T05:42:11;36;24;
51052;PMS5003;37093;37.716;-122.060;2022-12-07T05:44:39;26;26;
51052;PMS5003;37093;37.716;-122.060;2022-12-07T05:47:09;27;19;
51052;PMS5003;37093;37.716;-122.060;2022-12-07T05:49:38;14;8;
51052;PMS5003;37093;37.716;-122.060;2022-12-07T05:52:07;8;5;
51052;PMS5003;37093;37.716;-122.060;2022-12-07T05:54:35;5;5;
51052;PMS5003;37093;37.716;-122.060;2022-12-07T05:57:04;4;4;
51052;PMS5003;37093;37.716;-122.060;2022-12-07T05:59:32;5;5;
51052;PMS5003;37093;37.716;-122.060;2022-12-07T06:02:02;5;5;
51052;PMS5003;37093;37.716;-122.060;2022-12-07T06:04:32;3;3;
51052;PMS5003;37093;37.716;-122.060;2022-12-07T06:07:03;3;3;
51052;PMS5003;37093;37.716;-122.060;2022-12-07T06:09:32;2;2;
51052;PMS5003;37093;37.716;-122.060;2022-12-07T06:12:02;2;2;
51052;PMS5003;37093;37.716;-122.060;2022-12-07T06:14:31;1;1;
51052;PMS5003;37093;37.716;-122.060;2022-12-07T06:16:59;4;2;
51052;PMS5003;37093;37.716;-122.060;2022-12-07T06:19:28;3;2;
51052;PMS5003;37093;37.716;-122.060;2022-12-07T06:21:57;4;3;
51052;PMS5003;37093;37.716;-122.060;2022-12-07T06:24:25;2;2;
51052;PMS5003;37093;37.716;-122.060;2022-12-07T06:26:54;3;3;
51052;PMS5003;37093;37.716;-122.060;2022-12-07T06:29:22;3;2;
51052;PMS5003;37093;37.716;-122.060;2022-12-07T06:31:51;4;4;
51052;PMS5003;37093;37.716;-122.060;2022-12-07T06:34:20;3;3;
51052;PMS5003;37093;37.716;-122.060;2022-12-07T06:36:50;4;3;
51052;PMS5003;37093;37.716;-122.060;2022-12-07T06:39:20;5;4;
51052;PMS5003;37093;37.716;-122.060;2022-12-07T06:41:50;4;3;
51052;PMS5003;37093;37.716;-122.060;2022-12-07T06:44:19;3;2;
51052;PMS5003;37093;37.716;-122.060;2022-12-07T06:46:48;6;3;
51052;PMS5003;37093;37.716;-122.060;2022-12-07T06:49:18;3;3;
51052;PMS5003;37093;37.716;-122.060;2022-12-07T06:51:47;3;2;
51052;PMS5003;37093;37.716;-122.060;2022-12-07T06:54:15;4;2;
51052;PMS5003;37093;37.716;-122.060;2022-12-07T06:56:44;4;3;
51052;PMS5003;37093;37.716;-122.060;2022-12-07T06:59:13;5;3;
51052;PMS5003;37093;37.716;-122.060;2022-12-07T07:01:41;5;2;
51052;PMS5003;37093;37.716;-122.060;2022-12-07T07:04:10;3;2;
51052;PMS5003;37093;37.716;-122.060;2022-12-07T07:06:38;5;3;
51052;PMS5003;37093;37.716;-122.060;2022-12-07T07:09:07;3;3;
51052;PMS5003;37093;37.716;-122.060;2022-12-07T07:11:36;5;3;
51052;PMS5003;37093;37.716;-122.060;2022-12-07T07:14:04;3;3;
51052;PMS5003;37093;37.716;-122.060;2022-12-07T07:16:33;4;4;
51052;PMS5003;37093;37.716;-122.060;2022-12-07T07:19:01;4;3;
51052;PMS5003;37093;37.716;-122.060;2022-12-07T07:21:30;4;3;
51052;PMS5003;37093;37.716;-122.060;2022-12-07T07:23:59;3;3;
51052;PMS5003;37093;37.716;-122.060;2022-12-07T07:26:27;2;2;
51052;PMS5003;37093;37.716;-122.060;2022-12-07T07:28:56;2;2;
51052;PMS5003;37093;37.716;-122.060;2022-12-07T07:31:25;2;2;
51052;PMS5003;37093;37.716;-122.060;2022-12-07T07:33:53;4;2;
51052;PMS5003;37093;37.716;-122.060;2022-12-07T07:36:22;3;3;
51052;PMS5003;37093;37.716;-122.060;2022-12-07T07:38:51;2;2;
51052;PMS5003;37093;37.716;-122.060;2022-12-07T07:41:19;4;3;
51052;PMS5003;37093;37.716;-122.060;2022-12-07T07:43:48;3;3;
51052;PMS5003;37093;37.716;-122.060;2022-12-07T07:46:17;2;2;
51052;PMS5003;37093;37.716;-122.060;2022-12-07T07:48:45;3;2;
51052;PMS5003;37093;37.716;-122.060;2022-12-07T07:51:14;5;3;
51052;PMS5003;37093;37.716;-122.060;2022-12-07T07:53:42;6;3;
51052;PMS5003;37093;37.716;-122.060;2022-12-07T07:56:11;4;3;
51052;PMS5003;37093;37.716;-122.060;2022-12-07T07:58:40;2;2;
51052;PMS5003;37093;37.716;-122.060;2022-12-07T08:01:11;2;2;
51052;PMS5003;37093;37.716;-122.060;2022-12-07T08:03:40;1;1;
51052;PMS5003;37093;37.716;-122.060;2022-12-07T08:06:08;2;2;
51052;PMS5003;37093;37.716;-122.060;2022-12-07T08:08:37;3;3;
51052;PMS5003;37093;37.716;-122.060;2022-12-07T08:11:06;4;3;
51052;PMS5003;37093;37.716;-122.060;2022-12-07T08:13:35;4;4;
51052;PMS5003;37093;37.716;-122.060;2022-12-07T08:16:04;4;3;
51052;PMS5003;37093;37.716;-122.060;2022-12-07T08:18:35;3;2;
51052;PMS5003;37093;37.716;-122.060;2022-12-07T08:21:05;2;2;
51052;PMS5003;37093;37.716;-122.060;2022-12-07T08:23:36;2;2;
51052;PMS5003;37093;37.716;-122.060;2022-12-07T08:26:05;3;2;
51052;PMS5003;37093;37.716;-122.060;2022-12-07T08:28:36;4;3;
51052;PMS5003;37093;37.716;-122.060;2022-12-07T08:31:05;3;2;
51052;PMS5003;37093;37.716;-122.060;2022-12-07T08:33:37;3;3;
51052;PMS5003;37093;37.716;-122.060;2022-12-07T08:36:06;6;4;
51052;PMS5003;37093;37.716;-122.060;2022-12-07T08:38:37;2;2;
51052;PMS5003;37093;37.716;-122.060;2022-12-07T08:41:07;1;1;
51052;PMS5003;37093;37.716;-122.060;2022-12-07T08:43:35;2;2;
51052;PMS5003;37093;37.716;-122.060;2022-12-07T08:46:06;2;2;
51052;PMS5003;37093;37.716;-122.060;2022-12-07T08:48:38;2;2;
51052;PMS5003;37093;37.716;-122.060;2022-12-07T08:51:10;6;3;
51052;PMS5003;37093;37.716;-122.060;2022-12-07T08:53:39;4;4;
51052;PMS5003;37093;37.716;-122.060;2022-12-07T08:56:09;3;3;
51052;PMS5003;37093;37.716;-122.060;2022-12-07T08:58:38;2;2;
51052;PMS5003;37093;37.716;-122.060;2022-12-07T09:01:07;3;3;
51052;PMS5003;37093;37.716;-122.060;2022-12-07T09:03:36;2;2;
51052;PMS5003;37093;37.716;-122.060;2022-12-07T09:06:04;3;3;
51052;PMS5003;37093;37.716;-122.060;2022-12-07T09:08:34;5;3;
51052;PMS5003;37093;37.716;-122.060;2022-12-07T09:11:05;2;2;
51052;PMS5003;37093;37.716;-122.060;2022-12-07T09:13:33;4;3;
51052;PMS5003;37093;37.716;-122.060;2022-12-07T09:16:02;2;2;
51052;PMS5003;37093;37.716;-122.060;2022-12-07T09:18:31;4;4;
51052;PMS5003;37093;37.716;-122.060;2022-12-07T09:20:59;2;2;
51052;PMS5003;37093;37.716;-122.060;2022-12-07T09:23:28;6;3;
51052;PMS5003;37093;37.716;-122.060;2022-12-07T09:25:58;2;2;
51052;PMS5003;37093;37.716;-122.060;2022-12-07T09:28:27;4;4;
51052;PMS5003;37093;37.716;-122.060;2022-12-07T09:30:55;3;3;
51052;PMS5003;37093;37.716;-122.060;2022-12-07T09:33:24;3;1;
51052;PMS5003;37093;37.716;-122.060;2022-12-07T09:35:53;2;2;
51052;PMS5003;37093;37.716;-122.060;2022-12-07T09:38:26;4;3;
51052;PMS5003;37093;37.716;-122.060;2022-12-07T09:40:55;2;2;
51052;PMS5003;37093;37.716;-122.060;2022-12-07T09:43:23;1;1;
51052;PMS5003;37093;37.716;-122.060;2022-12-07T09:45:53;3;3;
51052;PMS5003;37093;37.716;-122.060;2022-12-07T09:48:24;2;1;
51052;PMS5003;37093;37.716;-122.060;2022-12-07T09:50:57;2;2;
51052;PMS5003;37093;37.716;-122.060;2022-12-07T09:53:28;2;2;
51052;PMS5003;37093;37.716;-122.060;2022-12-07T09:56:00;6;4;
51052;PMS5003;37093;37.716;-122.060;2022-12-07T09:58:30;2;2;
51052;PMS5003;37093;37.716;-122.060;2022-12-07T10:01:05;2;2;
51052;PMS5003;37093;37.716;-122.060;2022-12-07T10:03:40;3;2;
51052;PMS5003;37093;37.716;-122.060;2022-12-07T10:06:12;5;3;
51052;PMS5003;37093;37.716;-122.060;2022-12-07T10:08:40;5;3;
51052;PMS5003;37093;37.716;-122.060;2022-12-07T10:11:09;3;3;
51052;PMS5003;37093;37.716;-122.060;2022-12-07T10:13:39;2;1;
51052;PMS5003;37093;37.716;-122.060;2022-12-07T10:16:24;4;2;
51052;PMS5003;37093;37.716;-122.060;2022-12-07T10:19:17;5;3;
51052;PMS5003;37093;37.716;-122.060;2022-12-07T10:22:08;6;2;
51052;PMS5003;37093;37.716;-122.060;2022-12-07T10:24:38;3;2;
51052;PMS5003;37093;37.716;-122.060;2022-12-07T10:27:17;3;1;
51052;PMS5003;37093;37.716;-122.060;2022-12-07T10:29:48;2;2;
51052;PMS5003;37093;37.716;-122.060;2022-12-07T10:32:28;4;3;
51052;PMS5003;37093;37.716;-122.060;2022-12-07T10:35:33;1;1;
51052;PMS5003;37093;37.716;-122.060;2022-12-07T10:38:15;3;1;
51052;PMS5003;37093;37.716;-122.060;2022-12-07T10:40:44;2;2;
51052;PMS5003;37093;37.716;-122.060;2022-12-07T10:43:17;9;4;
51052;PMS5003;37093;37.716;-122.060;2022-12-07T10:45:58;2;2;
51052;PMS5003;37093;37.716;-122.060;2022-12-07T10:48:42;2;2;
51052;PMS5003;37093;37.716;-122.060;2022-12-07T10:51:18;2;2;
51052;PMS5003;37093;37.716;-122.060;2022-12-07T10:54:00;2;2;
51052;PMS5003;37093;37.716;-122.060;2022-12-07T10:56:39;4;3;
51052;PMS5003;37093;37.716;-122.060;2022-12-07T10:59:26;2;2;
51052;PMS5003;37093;37.716;-122.060;2022-12-07T11:02:39;2;2;
51052;PMS5003;37093;37.716;-122.060;2022-12-07T11:05:19;4;2;
51052;PMS5003;37093;37.716;-122.060;2022-12-07T11:07:58;3;1;
51052;PMS5003;37093;37.716;-122.060;2022-12-07T11:10:35;4;3;
51052;PMS5003;37093;37.716;-122.060;2022-12-07T11:13:15;2;2;
51052;PMS5003;37093;37.716;-122.060;2022-12-07T11:15:55;3;2;
51052;PMS5003;37093;37.716;-122.060;2022-12-07T11:18:35;3;2;
51052;PMS5003;37093;37.716;-122.060;2022-12-07T11:21:13;4;2;
51052;PMS5003;37093;37.716;-122.060;2022-12-07T11:23:49;2;2;
51052;PMS5003;37093;37.716;-122.060;2022-12-07T11:26:30;3;3;
51052;PMS5003;37093;37.716;-122.060;2022-12-07T11:29:19;3;3;
51052;PMS5003;37093;37.716;-122.060;2022-12-07T11:32:03;4;4;
51052;PMS5003;37093;37.716;-122.060;2022-12-07T11:34:39;4;3;
51052;PMS5003;37093;37.716;-122.060;2022-12-07T11:37:15;3;2;
51052;PMS5003;37093;37.716;-122.060;2022-12-07T11:39:49;3;3;
51052;PMS5003;37093;37.716;-122.060;2022-12-07T11:42:22;3;3;
51052;PMS5003;37093;37.716;-122.060;2022-12-07T11:44:55;2;2;
51052;PMS5003;37093;37.716;-122.060;2022-12-07T11:47:30;2;2;
51052;PMS5003;37093;37.716;-122.060;2022-12-07T11:50:09;2;2;
51052;PMS5003;37093;37.716;-122.060;2022-12-07T11:52:53;2;2;
51052;PMS5003;37093;37.716;-122.060;2022-12-07T11:55:26;3;3;
51052;PMS5003;37093;37.716;-122.060;2022-12-07T11:58:04;5;3;
51052;PMS5003;37093;37.716;-122.060;2022-12-07T12:00:41;3;2;
51052;PMS5003;37093;37.716;-122.060;2022-12-07T12:03:11;2;2;
51052;PMS5003;37093;37.716;-122.060;2022-12-07T12:05:43;2;2;
51052;PMS5003;37093;37.716;-122.060;2022-12-07T12:08:13;4;3;
51052;PMS5003;37093;37.716;-122.060;2022-12-07T12:10:50;3;2;
51052;PMS5003;37093;37.716;-122.060;2022-12-07T12:13:29;2;2;
51052;PMS5003;37093;37.716;-122.060;2022-12-07T12:16:22;3;3;
51052;PMS5003;37093;37.716;-122.060;2022-12-07T12:19:22;3;2;
51052;PMS5003;37093;37.716;-122.060;2022-12-07T12:22:01;5;3;
51052;PMS5003;37093;37.716;-122.060;2022-12-07T12:24:34;4;2;
51052;PMS5003;37093;37.716;-122.060;2022-12-07T12:27:07;3;3;
51052;PMS5003;37093;37.716;-122.060;2022-12-07T12:29:42;3;2;
51052;PMS5003;37093;37.716;-122.060;2022-12-07T12:32:13;4;2;
51052;PMS5003;37093;37.716;-122.060;2022-12-07T12:35:21;3;3;
51052;PMS5003;37093;37.716;-122.060;2022-12-07T12:38:20;2;1;
51052;PMS5003;37093;37.716;-122.060;2022-12-07T12:40:56;3;3;
51052;PMS5003;37093;37.716;-122.060;2022-12-07T12:43:41;2;2;
51052;PMS5003;37093;37.716;-122.060;2022-12-07T12:48:28;2;2;
51052;PMS5003;37093;37.716;-122.060;2022-12-07T12:51:35;4;2;
51052;PMS5003;37093;37.716;-122.060;2022-12-07T12:54:08;4;3;
51052;PMS5003;37093;37.716;-122.060;2022-12-07T12:56:43;2;2;
51052;PMS5003;37093;37.716;-122.060;2022-12-07T12:59:22;4;2;
51052;PMS5003;37093;37.716;-122.060;2022-12-07T13:01:53;2;2;
51052;PMS5003;37093;37.716;-122.060;2022-12-07T13:04:24;5;2;
51052;PMS5003;37093;37.716;-122.060;2022-12-07T13:06:57;4;3;
51052;PMS5003;37093;37.716;-122.060;2022-12-07T13:09:27;2;2;
51052;PMS5003;37093;37.716;-122.060;2022-12-07T13:12:00;4;3;
51052;PMS5003;37093;37.716;-122.060;2022-12-07T13:14:40;3;2;
51052;PMS5003;37093;37.716;-122.060;2022-12-07T13:17:54;3;3;
51052;PMS5003;37093;37.716;-122.060;2022-12-07T13:21:01;2;2;
51052;PMS5003;37093;37.716;-122.060;2022-12-07T13:24:07;3;3;
51052;PMS5003;37093;37.716;-122.060;2022-12-07T13:26:41;3;3;
51052;PMS5003;37093;37.716;-122.060;2022-12-07T13:29:11;3;2;
51052;PMS5003;37093;37.716;-122.060;2022-12-07T13:31:41;4;3;
51052;PMS5003;37093;37.716;-122.060;2022-12-07T13:34:28;2;2;
51052;PMS5003;37093;37.716;-122.060;2022-12-07T13:36:58;3;3;
51052;PMS5003;37093;37.716;-122.060;2022-12-07T13:39:28;3;3;
51052;PMS5003;37093;37.716;-122.060;2022-12-07T13:41:57;5;5;
51052;PMS5003;37093;37.716;-122.060;2022-12-07T13:44:26;5;4;
51052;PMS5003;37093;37.716;-122.060;2022-12-07T13:46:57;7;5;
51052;PMS5003;37093;37.716;-122.060;2022-12-07T13:49:32;4;4;
51052;PMS5003;37093;37.716;-122.060;2022-12-07T13:52:14;3;3;
51052;PMS5003;37093;37.716;-122.060;2022-12-07T13:54:45;9;4;
51052;PMS5003;37093;37.716;-122.060;2022-12-07T13:57:15;5;3;
51052;PMS5003;37093;37.716;-122.060;2022-12-07T13:59:43;3;3;
51052;PMS5003;37093;37.716;-122.060;2022-12-07T14:02:22;2;2;
51052;PMS5003;37093;37.716;-122.060;2022-12-07T14:05:05;2;2;
51052;PMS5003;37093;37.716;-122.060;2022-12-07T14:07:44;5;5;
51052;PMS5003;37093;37.716;-122.060;2022-12-07T14:10:23;6;6;
51052;PMS5003;37093;37.716;-122.060;2022-12-07T14:12:54;9;7;
51052;PMS5003;37093;37.716;-122.060;2022-12-07T14:15:24;5;4;
51052;PMS5003;37093;37.716;-122.060;2022-12-07T14:17:55;9;6;
51052;PMS5003;37093;37.716;-122.060;2022-12-07T14:20:32;8;6;
51052;PMS5003;37093;37.716;-122.060;2022-12-07T14:23:03;6;6;
51052;PMS5003;37093;37.716;-122.060;2022-12-07T14:25:32;9;7;
51052;PMS5003;37093;37.716;-122.060;2022-12-07T14:28:01;10;9;
51052;PMS5003;37093;37.716;-122.060;2022-12-07T14:30:30;10;7;
51052;PMS5003;37093;37.716;-122.060;2022-12-07T14:33:00;8;8;
51052;PMS5003;37093;37.716;-122.060;2022-12-07T14:35:30;7;7;
51052;PMS5003;37093;37.716;-122.060;2022-12-07T14:38:00;9;8;
51052;PMS5003;37093;37.716;-122.060;2022-12-07T14:40:28;12;8;
51052;PMS5003;37093;37.716;-122.060;2022-12-07T14:42:58;8;7;
51052;PMS5003;37093;37.716;-122.060;2022-12-07T14:45:28;7;6;
51052;PMS5003;37093;37.716;-122.060;2022-12-07T14:47:57;8;8;
51052;PMS5003;37093;37.716;-122.060;2022-12-07T14:50:26;13;8;
51052;PMS5003;37093;37.716;-122.060;2022-12-07T14:52:55;16;12;
51052;PMS5003;37093;37.716;-122.060;2022-12-07T14:55:28;10;8;
51052;PMS5003;37093;37.716;-122.060;2022-12-07T14:57:58;12;8;
51052;PMS5003;37093;37.716;-122.060;2022-12-07T15:00:27;7;7;
51052;PMS5003;37093;37.716;-122.060;2022-12-07T15:02:56;12;8;
51052;PMS5003;37093;37.716;-122.060;2022-12-07T15:05:25;13;10;
51052;PMS5003;37093;37.716;-122.060;2022-12-07T15:07:54;9;9;
51052;PMS5003;37093;37.716;-122.060;2022-12-07T15:10:23;10;8;
51052;PMS5003;37093;37.716;-122.060;2022-12-07T15:12:53;9;8;
51052;PMS5003;37093;37.716;-122.060;2022-12-07T15:15:20;7;7;
51052;PMS5003;37093;37.716;-122.060;2022-12-07T15:17:49;22;8;
51052;PMS5003;37093;37.716;-122.060;2022-12-07T15:20:17;11;9;
51052;PMS5003;37093;37.716;-122.060;2022-12-07T15:22:45;10;10;
51052;PMS5003;37093;37.716;-122.060;2022-12-07T15:25:14;7;7;
51052;PMS5003;37093;37.716;-122.060;2022-12-07T15:27:43;9;7;
51052;PMS5003;37093;37.716;-122.060;2022-12-07T15:30:12;8;8;
51052;PMS5003;37093;37.716;-122.060;2022-12-07T15:32:40;8;6;
51052;PMS5003;37093;37.716;-122.060;2022-12-07T15:35:09;8;6;
51052;PMS5003;37093;37.716;-122.060;2022-12-07T15:37:37;10;8;
51052;PMS5003;37093;37.716;-122.060;2022-12-07T15:40:06;7;7;
51052;PMS5003;37093;37.716;-122.060;2022-12-07T15:42:35;9;8;
51052;PMS5003;37093;37.716;-122.060;2022-12-07T15:45:04;9;9;
51052;PMS5003;37093;37.716;-122.060;2022-12-07T15:47:35;10;6;
51052;PMS5003;37093;37.716;-122.060;2022-12-07T15:50:06;9;9;
51052;PMS5003;37093;37.716;-122.060;2022-12-07T15:52:37;14;8;
51052;PMS5003;37093;37.716;-122.060;2022-12-07T15:55:06;6;6;
51052;PMS5003;37093;37.716;-122.060;2022-12-07T15:57:37;12;10;
51052;PMS5003;37093;37.716;-122.060;2022-12-07T16:00:08;7;6;
51052;PMS5003;37093;37.716;-122.060;2022-12-07T16:02:37;8;5;
51052;PMS5003;37093;37.716;-122.060;2022-12-07T16:05:05;6;4;
51052;PMS5003;37093;37.716;-122.060;2022-12-07T16:07:33;3;3;
51052;PMS5003;37093;37.716;-122.060;2022-12-07T16:10:02;3;3;
51052;PMS5003;37093;37.716;-122.060;2022-12-07T16:12:32;4;4;
51052;PMS5003;37093;37.716;-122.060;2022-12-07T16:15:00;6;5;
51052;PMS5003;37093;37.716;-122.060;2022-12-07T16:17:29;5;4;
51052;PMS5003;37093;37.716;-122.060;2022-12-07T16:20:04;7;7;
51052;PMS5003;37093;37.716;-122.060;2022-12-07T16:22:33;7;7;
51052;PMS5003;37093;37.716;-122.060;2022-12-07T16:25:02;9;9;
51052;PMS5003;37093;37.716;-122.060;2022-12-07T16:27:30;8;5;
51052;PMS5003;37093;37.716;-122.060;2022-12-07T16:29:59;8;8;
51052;PMS5003;37093;37.716;-122.060;2022-12-07T16:32:27;10;7;